Ely, Minnesota
Current Conditions -  °F | °C
As of 5:13 PM on Sunday 21 Dec 2014 (Local Time) from KELO Reporting Station
Overcast Overcast  
Wind Chill: 22°   Ceiling: 900
Heat Index: 30°   Visibility: 10mi
Dew Point: 28°   Wind: 9mph
Humidity: 93%   Direction: 160°SSE
Pressure: 29.74"   Gusts: NA
Location:  47.9°N, 91.87°W
Report Text: KELO 212313Z AUTO 16008KT 10SM OVC009 M01/M02 A2974 RMK AO2
Loading
Personal Weather Stations






























Interactive Weather Map New forecast layout! Learn more

10-Day Weather Forecast

Advertisements
Track Severe Weather on mobile